Time;durP1;ratioP1;P1;durP2;ratioP2;P2;SDS_P1;SDS_P2;PMS_P1;PMS_P2;Temp;Humidity;BMP_temperature;BMP_pressure;BME280_temperature;BME280_humidity;BME280_pressure;Samples;Min_cycle;Max_cycle;Signal;HPM_P1;HPM_P2
2021/07/18 00:01:27;;;;;;;1999.90;999.90;;;19.10;99.90;;;;;;5054671;28;20172;-72
2021/07/18 00:03:52;;;;;;;1999.90;999.90;;;19.10;99.90;;;;;;5036537;28;20197;-72
2021/07/18 00:06:18;;;;;;;1999.90;999.90;;;19.10;99.90;;;;;;5054769;28;20200;-72
2021/07/18 00:08:44;;;;;;;1999.90;999.90;;;19.10;99.90;;;;;;5054706;28;20173;-72
2021/07/18 00:11:09;;;;;;;1999.90;999.90;;;19.00;99.90;;;;;;5054630;28;20174;-72
2021/07/18 00:13:35;;;;;;;1999.90;999.90;;;19.00;99.90;;;;;;5054464;28;20173;-72
2021/07/18 00:16:00;;;;;;;1999.90;999.90;;;18.90;99.90;;;;;;5054360;28;20177;-72
2021/07/18 00:18:26;;;;;;;1999.90;999.90;;;18.90;99.90;;;;;;5054514;28;20680;-72
2021/07/18 00:20:52;;;;;;;1999.90;999.90;;;18.80;99.90;;;;;;5054435;28;20618;-72
2021/07/18 00:23:18;;;;;;;1999.90;999.90;;;18.70;99.90;;;;;;5054314;28;20167;-72
2021/07/18 00:25:44;;;;;;;1999.90;999.90;;;18.60;99.90;;;;;;5054091;28;20636;-72
2021/07/18 00:28:10;;;;;;;1999.90;999.90;;;18.50;99.90;;;;;;5054391;28;20406;-72
2021/07/18 00:30:36;;;;;;;1999.90;999.90;;;18.30;99.90;;;;;;5054320;28;20407;-72
2021/07/18 00:33:02;;;;;;;1999.90;999.90;;;18.20;99.90;;;;;;5054294;28;20199;-72
2021/07/18 00:35:28;;;;;;;1999.90;999.90;;;18.20;99.90;;;;;;5053907;28;20447;-71
2021/07/18 00:37:53;;;;;;;1999.90;999.90;;;18.20;99.90;;;;;;5054231;28;20403;-72
2021/07/18 00:40:19;;;;;;;1999.90;999.90;;;18.10;99.90;;;;;;5054312;28;20166;-72
2021/07/18 00:42:44;;;;;;;1999.90;999.90;;;18.10;99.90;;;;;;5054261;28;20174;-72
2021/07/18 00:45:10;;;;;;;1999.90;999.90;;;18.00;99.90;;;;;;5053750;28;20195;-72
2021/07/18 00:47:38;;;;;;;1999.90;999.90;;;18.00;99.90;;;;;;5054042;28;20549;-71
2021/07/18 00:50:10;;;;;;;1999.90;999.90;;;17.90;99.90;;;;;;5053803;28;20179;-72
2021/07/18 00:52:36;;;;;;;1999.90;999.90;;;17.80;99.90;;;;;;5053740;28;20455;-72
2021/07/18 00:55:02;;;;;;;1999.90;999.90;;;17.80;99.90;;;;;;5053211;28;20512;-72
2021/07/18 00:57:28;;;;;;;1999.90;999.90;;;17.80;99.90;;;;;;5053621;28;20174;-72
2021/07/18 00:59:54;;;;;;;1999.90;999.90;;;17.80;99.90;;;;;;5053594;28;20463;-72
2021/07/18 01:02:20;;;;;;;1999.90;999.90;;;17.80;99.90;;;;;;5053646;28;20254;-72
2021/07/18 01:04:46;;;;;;;1999.90;999.90;;;17.70;99.90;;;;;;5053310;28;20724;-72
2021/07/18 01:07:11;;;;;;;1999.90;999.90;;;17.70;99.90;;;;;;5053572;28;20493;-72
2021/07/18 01:09:37;;;;;;;1999.90;999.90;;;17.60;99.90;;;;;;5053502;28;20591;-72
2021/07/18 01:12:03;;;;;;;1999.90;999.90;;;17.60;99.90;;;;;;5053463;28;20736;-72
2021/07/18 01:14:29;;;;;;;1999.90;999.90;;;17.60;99.90;;;;;;5053055;28;20195;-72
2021/07/18 01:16:56;;;;;;;1999.90;999.90;;;17.50;99.90;;;;;;5053438;28;20777;-72
2021/07/18 01:19:22;;;;;;;1999.90;999.90;;;17.50;99.90;;;;;;5053437;28;20873;-72
2021/07/18 01:21:58;;;;;;;1999.90;999.90;;;17.50;99.90;;;;;;5053419;28;20408;-71
2021/07/18 01:24:24;;;;;;;1999.90;999.90;;;17.50;99.90;;;;;;5053014;28;20522;-72
2021/07/18 01:26:51;;;;;;;1999.90;999.90;;;17.50;99.90;;;;;;5053139;28;20412;-72
2021/07/18 01:29:17;;;;;;;1999.90;999.90;;;17.50;99.90;;;;;;5035183;28;20487;-72
2021/07/18 01:31:42;;;;;;;1999.90;999.90;;;17.40;99.90;;;;;;5053026;28;20846;-71
2021/07/18 01:34:08;;;;;;;1999.90;999.90;;;17.40;99.90;;;;;;5034665;28;20456;-72
2021/07/18 01:36:35;;;;;;;1999.90;999.90;;;17.30;99.90;;;;;;5052993;28;20646;-72
2021/07/18 01:39:04;;;;;;;1999.90;999.90;;;17.30;99.90;;;;;;5052996;28;20247;-72
2021/07/18 01:41:30;;;;;;;1999.90;999.90;;;17.20;99.90;;;;;;5052872;28;20417;-72
2021/07/18 01:43:55;;;;;;;1999.90;999.90;;;17.20;99.90;;;;;;5052519;28;20856;-72
2021/07/18 01:46:21;;;;;;;1999.90;999.90;;;17.10;99.90;;;;;;5052849;28;20187;-72
2021/07/18 01:48:51;;;;;;;1999.90;999.90;;;17.10;99.90;;;;;;5052897;28;20963;-72
2021/07/18 01:51:24;;;;;;;1999.90;999.90;;;17.10;99.90;;;;;;5052646;28;20456;-72
2021/07/18 01:54:00;;;;;;;1999.90;999.90;;;17.10;99.90;;;;;;5052421;28;20521;-72
2021/07/18 01:56:27;;;;;;;1999.90;999.90;;;17.10;99.90;;;;;;5052705;28;20458;-72
2021/07/18 01:58:53;;;;;;;1999.90;999.90;;;17.10;99.90;;;;;;5052484;28;20482;-72
2021/07/18 02:01:27;;;;;;;1999.90;999.90;;;17.10;99.90;;;;;;5052537;28;20430;-72
2021/07/18 02:03:57;;;;;;;1999.90;999.90;;;17.10;99.90;;;;;;5052110;28;20429;-71
2021/07/18 02:06:24;;;;;;;1999.90;999.90;;;17.10;99.90;;;;;;5051792;28;20406;-72
2021/07/18 02:08:52;;;;;;;1999.90;999.90;;;17.10;99.90;;;;;;5052378;28;20416;-72
2021/07/18 02:11:19;;;;;;;1999.90;999.90;;;17.00;99.90;;;;;;5052336;28;20407;-72
2021/07/18 02:13:54;;;;;;;1999.90;999.90;;;17.00;99.90;;;;;;5052011;28;20925;-71
2021/07/18 02:16:20;;;;;;;1999.90;999.90;;;17.00;99.90;;;;;;5052297;28;20406;-72
2021/07/18 02:18:47;;;;;;;1999.90;999.90;;;17.00;99.90;;;;;;5052214;28;20485;-72
2021/07/18 02:21:15;;;;;;;1999.90;999.90;;;17.00;99.90;;;;;;5052198;28;20410;-72
2021/07/18 02:23:40;;;;;;;1999.90;999.90;;;17.00;99.90;;;;;;5051940;28;20429;-72
2021/07/18 02:26:06;;;;;;;1999.90;999.90;;;17.00;99.90;;;;;;5052024;28;20776;-72
2021/07/18 02:28:32;;;;;;;1999.90;999.90;;;17.00;99.90;;;;;;5052026;28;20169;-72
2021/07/18 02:30:58;;;;;;;1999.90;999.90;;;17.10;99.90;;;;;;5052021;28;20406;-72
2021/07/18 02:33:24;;;;;;;1999.90;999.90;;;17.10;99.90;;;;;;5051775;28;20461;-72
2021/07/18 02:35:50;;;;;;;1999.90;999.90;;;17.20;99.90;;;;;;5052008;28;20209;-72
2021/07/18 02:38:16;;;;;;;1999.90;999.90;;;17.10;99.90;;;;;;5052122;28;20411;-72
2021/07/18 02:40:41;;;;;;;1999.90;999.90;;;17.10;99.90;;;;;;5052163;28;20199;-72
2021/07/18 02:43:07;;;;;;;1999.90;999.90;;;17.10;99.90;;;;;;5051923;28;20172;-72
2021/07/18 02:45:33;;;;;;;1999.90;999.90;;;17.10;99.90;;;;;;5033643;28;20201;-72
2021/07/18 02:47:59;;;;;;;1999.90;999.90;;;17.10;99.90;;;;;;5051870;28;20167;-72
2021/07/18 02:50:27;;;;;;;1999.90;999.90;;;17.00;99.90;;;;;;5051844;28;20171;-72
2021/07/18 02:52:53;;;;;;;1999.90;999.90;;;17.10;99.90;;;;;;5051727;28;20453;-72
2021/07/18 02:55:19;;;;;;;1999.90;999.90;;;17.10;99.90;;;;;;5051315;28;20430;-72
2021/07/18 02:57:44;;;;;;;1999.90;999.90;;;17.00;99.90;;;;;;5051730;28;20968;-72
2021/07/18 03:00:16;;;;;;;1999.90;999.90;;;17.00;99.90;;;;;;5051724;28;20443;-72
2021/07/18 03:02:43;;;;;;;1999.90;999.90;;;17.00;99.90;;;;;;5051644;28;20177;-72
2021/07/18 03:05:10;;;;;;;1999.90;999.90;;;16.90;99.90;;;;;;5051433;28;20446;-72
2021/07/18 03:07:37;;;;;;;1999.90;999.90;;;16.80;99.90;;;;;;5051824;28;20496;-72
2021/07/18 03:10:04;;;;;;;1999.90;999.90;;;16.80;99.90;;;;;;5051869;28;20473;-72
2021/07/18 03:12:31;;;;;;;1999.90;999.90;;;16.90;99.90;;;;;;5051724;28;21031;-72
2021/07/18 03:15:01;;;;;;;1999.90;999.90;;;16.90;99.90;;;;;;5051097;28;20442;-72
2021/07/18 03:17:27;;;;;;;1999.90;999.90;;;16.90;99.90;;;;;;5051574;28;20415;-72
2021/07/18 03:19:52;;;;;;;1999.90;999.90;;;16.90;99.90;;;;;;5055055;28;20810;-72
2021/07/18 03:22:19;;;;;;;1999.90;999.90;;;16.90;99.90;;;;;;5055586;28;20223;-72
2021/07/18 03:24:45;;;;;;;1999.90;999.90;;;16.90;99.90;;;;;;5055100;28;20189;-72
2021/07/18 03:27:10;;;;;;;1999.90;999.90;;;16.90;99.90;;;;;;5055457;28;20882;-72
2021/07/18 03:29:36;;;;;;;1999.90;999.90;;;16.90;99.90;;;;;;5055411;28;20207;-72
2021/07/18 03:32:01;;;;;;;1999.90;999.90;;;16.90;99.90;;;;;;5055267;28;20680;-72
2021/07/18 03:34:27;;;;;;;1999.90;999.90;;;16.90;99.90;;;;;;5055056;28;20202;-72
2021/07/18 03:36:52;;;;;;;1999.90;999.90;;;16.80;99.90;;;;;;5056391;28;20244;-72
2021/07/18 03:39:18;;;;;;;1999.90;999.90;;;16.80;99.90;;;;;;5056295;28;20522;-72
2021/07/18 03:41:45;;;;;;;1999.90;999.90;;;16.90;99.90;;;;;;5056164;28;20171;-72
2021/07/18 03:44:10;;;;;;;1999.90;999.90;;;16.90;99.90;;;;;;5037868;28;20191;-73
2021/07/18 03:46:36;;;;;;;1999.90;999.90;;;16.80;99.90;;;;;;5055878;28;20402;-73
2021/07/18 03:49:02;;;;;;;1999.90;999.90;;;16.80;99.90;;;;;;5055641;28;20565;-73
2021/07/18 03:51:27;;;;;;;1999.90;999.90;;;16.70;99.90;;;;;;5037812;28;20173;-73
2021/07/18 03:53:53;;;;;;;1999.90;999.90;;;16.70;99.90;;;;;;5055323;28;20184;-73
2021/07/18 03:56:22;;;;;;;1999.90;999.90;;;16.60;99.90;;;;;;5055546;28;20171;-73
2021/07/18 03:58:48;;;;;;;1999.90;999.90;;;16.40;99.90;;;;;;5055557;28;20721;-73
2021/07/18 04:01:14;;;;;;;1999.90;999.90;;;16.30;99.90;;;;;;5055689;28;20963;-73
2021/07/18 04:03:39;;;;;;;1999.90;999.90;;;16.20;99.90;;;;;;5055132;28;20436;-73
2021/07/18 04:06:05;;;;;;;1999.90;999.90;;;16.10;99.90;;;;;;5054946;28;20169;-73
2021/07/18 04:08:31;;;;;;;1999.90;999.90;;;16.00;99.90;;;;;;5055274;28;20541;-73
2021/07/18 04:10:57;;;;;;;1999.90;999.90;;;15.90;99.90;;;;;;5055411;28;20233;-73
2021/07/18 04:13:22;;;;;;;1999.90;999.90;;;16.00;99.90;;;;;;5055310;28;20199;-73
2021/07/18 04:15:48;;;;;;;1999.90;999.90;;;16.00;99.90;;;;;;5055208;28;20454;-73
2021/07/18 04:18:14;;;;;;;1999.90;999.90;;;16.00;99.90;;;;;;5055528;28;20161;-73
2021/07/18 04:20:40;;;;;;;1999.90;999.90;;;16.10;99.90;;;;;;5055328;28;20164;-73
2021/07/18 04:23:08;;;;;;;1999.90;999.90;;;16.10;99.90;;;;;;5055644;28;20207;-73
2021/07/18 04:25:33;;;;;;;1999.90;999.90;;;16.20;99.90;;;;;;5054827;28;20254;-73
2021/07/18 04:27:59;;;;;;;1999.90;999.90;;;16.20;99.90;;;;;;5055353;28;20402;-73
2021/07/18 04:30:24;;;;;;;1999.90;999.90;;;16.20;99.90;;;;;;5054520;28;20243;-73
2021/07/18 04:32:50;;;;;;;1999.90;999.90;;;16.20;99.90;;;;;;5054836;28;20199;-73
2021/07/18 04:35:16;;;;;;;1999.90;999.90;;;16.30;99.90;;;;;;5054422;28;20203;-73
2021/07/18 04:37:41;;;;;;;1999.90;999.90;;;16.30;99.90;;;;;;5055043;28;20187;-73
2021/07/18 04:40:10;;;;;;;1999.90;999.90;;;16.40;99.90;;;;;;5055040;28;20636;-73
2021/07/18 04:42:36;;;;;;;1999.90;999.90;;;16.50;99.90;;;;;;5054950;28;20546;-73
2021/07/18 04:45:03;;;;;;;1999.90;999.90;;;16.50;99.90;;;;;;5054543;28;20488;-73
2021/07/18 04:47:28;;;;;;;1999.90;999.90;;;16.50;99.90;;;;;;5054722;28;20516;-73
2021/07/18 04:49:54;;;;;;;1999.90;999.90;;;16.60;99.90;;;;;;5054568;28;20432;-73
2021/07/18 04:52:19;;;;;;;1999.90;999.90;;;16.60;99.90;;;;;;5054528;28;20273;-73
2021/07/18 04:54:45;;;;;;;1999.90;999.90;;;16.70;99.90;;;;;;5054010;28;20575;-73
2021/07/18 04:57:11;;;;;;;1999.90;999.90;;;16.80;99.90;;;;;;5054310;28;20256;-73
2021/07/18 04:59:37;;;;;;;1999.90;999.90;;;16.80;99.90;;;;;;5053942;28;20202;-73
2021/07/18 05:02:03;;;;;;;1999.90;999.90;;;16.90;99.90;;;;;;5054100;28;20208;-73
2021/07/18 05:04:29;;;;;;;1999.90;999.90;;;17.00;99.90;;;;;;5053743;28;20426;-73
2021/07/18 05:06:55;;;;;;;1999.90;999.90;;;17.00;99.90;;;;;;5053987;28;20418;-73
2021/07/18 05:09:20;;;;;;;1999.90;999.90;;;17.00;99.90;;;;;;5054157;28;20164;-73
2021/07/18 05:11:46;;;;;;;1999.90;999.90;;;17.10;99.90;;;;;;5054251;28;20258;-73
2021/07/18 05:14:11;;;;;;;1999.90;999.90;;;17.20;99.90;;;;;;5054271;28;20264;-73
2021/07/18 05:16:37;;;;;;;1999.90;999.90;;;17.30;99.90;;;;;;5054569;28;20175;-73
2021/07/18 05:19:03;;;;;;;1999.90;999.90;;;17.40;99.90;;;;;;5054118;28;20169;-73
2021/07/18 05:21:28;;;;;;;1999.90;999.90;;;17.40;99.90;;;;;;5053743;28;20640;-73
2021/07/18 05:23:54;;;;;;;1999.90;999.90;;;17.40;99.90;;;;;;5053480;28;20218;-73
2021/07/18 05:26:21;;;;;;;1999.90;999.90;;;17.40;99.90;;;;;;5053634;28;20170;-73
2021/07/18 05:28:46;;;;;;;1999.90;999.90;;;17.40;99.90;;;;;;5053568;28;20253;-73
2021/07/18 05:31:12;;;;;;;1999.90;999.90;;;17.40;99.90;;;;;;5053450;28;20488;-73
2021/07/18 05:33:38;;;;;;;1999.90;999.90;;;17.40;99.90;;;;;;5053054;28;20757;-73
2021/07/18 05:36:03;;;;;;;1999.90;999.90;;;17.40;99.90;;;;;;5052999;28;20178;-73
2021/07/18 05:38:29;;;;;;;1999.90;999.90;;;17.40;99.90;;;;;;5053409;28;20278;-73
2021/07/18 05:40:55;;;;;;;1999.90;999.90;;;17.40;99.90;;;;;;5052682;28;20913;-73
2021/07/18 05:43:20;;;;;;;1999.90;999.90;;;17.50;99.90;;;;;;5053116;28;20166;-72
2021/07/18 05:45:46;;;;;;;1999.90;999.90;;;17.50;99.90;;;;;;5052866;28;20214;-72
2021/07/18 05:48:12;;;;;;;1999.90;999.90;;;17.60;99.90;;;;;;5052818;28;20179;-72
2021/07/18 05:50:37;;;;;;;1999.90;999.90;;;17.60;99.90;;;;;;5052766;28;20181;-72
2021/07/18 05:53:03;;;;;;;1999.90;999.90;;;17.60;99.90;;;;;;5052645;28;20187;-71
2021/07/18 05:55:29;;;;;;;1999.90;999.90;;;17.70;99.90;;;;;;5052377;28;20965;-72
2021/07/18 05:57:54;;;;;;;1999.90;999.90;;;17.80;99.90;;;;;;5052572;28;20161;-71
2021/07/18 06:00:20;;;;;;;1999.90;999.90;;;17.70;99.90;;;;;;5052616;28;20625;-72
2021/07/18 06:02:46;;;;;;;1999.90;999.90;;;17.80;99.90;;;;;;5052591;28;20171;-72
2021/07/18 06:05:12;;;;;;;1999.90;999.90;;;17.70;99.90;;;;;;5051983;28;20431;-72
2021/07/18 06:07:40;;;;;;;1999.90;999.90;;;17.80;99.90;;;;;;5052503;28;20167;-72
2021/07/18 06:10:07;;;;;;;1999.90;999.90;;;17.90;99.90;;;;;;5052349;28;20411;-72
2021/07/18 06:12:33;;;;;;;1999.90;999.90;;;18.10;99.90;;;;;;5052310;28;20489;-72
2021/07/18 06:14:59;;;;;;;1999.90;999.90;;;18.30;99.90;;;;;;5051996;28;20428;-72
2021/07/18 06:17:24;;;;;;;1999.90;999.90;;;18.40;99.90;;;;;;5052368;28;20544;-72
2021/07/18 06:19:50;;;;;;;1999.90;999.90;;;18.40;99.90;;;;;;5052236;28;20165;-72
2021/07/18 06:22:16;;;;;;;1999.90;999.90;;;18.40;99.90;;;;;;5052133;28;20639;-72
2021/07/18 06:24:42;;;;;;;1999.90;999.90;;;18.50;99.90;;;;;;5051902;28;20242;-72
2021/07/18 06:27:07;;;;;;;1999.90;999.90;;;18.70;99.90;;;;;;5052216;28;20414;-72
2021/07/18 06:29:34;;;;;;;1999.90;999.90;;;18.60;99.90;;;;;;5052279;28;20170;-72
2021/07/18 06:31:59;;;;;;;1999.90;999.90;;;18.70;99.90;;;;;;5052071;28;20192;-72
2021/07/18 06:34:26;;;;;;;1999.90;999.90;;;18.70;99.90;;;;;;5051731;28;20450;-72
2021/07/18 06:36:52;;;;;;;1999.90;999.90;;;18.90;99.90;;;;;;5052177;28;20166;-72
2021/07/18 06:39:19;;;;;;;1999.90;999.90;;;19.10;99.90;;;;;;5051943;28;20407;-72
2021/07/18 06:41:44;;;;;;;1999.90;999.90;;;19.10;99.90;;;;;;5052046;28;20412;-72
2021/07/18 06:44:10;;;;;;;1999.90;999.90;;;19.10;99.90;;;;;;5051568;28;20418;-72
2021/07/18 06:46:36;;;;;;;1999.90;999.90;;;19.00;99.90;;;;;;5051901;28;20777;-72
2021/07/18 06:49:02;;;;;;;1999.90;999.90;;;19.10;99.90;;;;;;5051841;28;20223;-72
2021/07/18 06:51:28;;;;;;;1999.90;999.90;;;19.10;99.90;;;;;;5051717;28;20721;-72
2021/07/18 06:53:53;;;;;;;1999.90;999.90;;;19.20;99.90;;;;;;5051334;28;20431;-72
2021/07/18 06:56:19;;;;;;;1999.90;999.90;;;19.20;99.90;;;;;;5051777;28;20167;-72
2021/07/18 06:58:44;;;;;;;1999.90;999.90;;;19.30;99.90;;;;;;5051881;28;20194;-73
2021/07/18 07:01:10;;;;;;;1999.90;999.90;;;19.20;99.90;;;;;;5051985;28;20170;-72
2021/07/18 07:03:35;;;;;;;1999.90;999.90;;;19.10;99.90;;;;;;5051797;28;20182;-72
2021/07/18 07:06:02;;;;;;;1999.90;999.90;;;19.00;99.90;;;;;;5051454;28;20247;-72
2021/07/18 07:08:29;;;;;;;1999.90;999.90;;;19.00;99.90;;;;;;5051717;28;20171;-72
2021/07/18 07:10:55;;;;;;;1999.90;999.90;;;19.00;99.90;;;;;;5051784;28;20400;-72
2021/07/18 07:13:21;;;;;;;1999.90;999.90;;;19.20;99.90;;;;;;5051545;28;20452;-72
2021/07/18 07:15:46;;;;;;;1999.90;999.90;;;19.30;99.90;;;;;;5051490;28;20420;-73
2021/07/18 07:18:12;;;;;;;1999.90;999.90;;;19.40;99.90;;;;;;5051790;28;20165;-73
2021/07/18 07:20:37;;;;;;;1999.90;999.90;;;19.50;99.90;;;;;;5051817;28;20185;-73
2021/07/18 07:23:03;;;;;;;1999.90;999.90;;;19.60;99.90;;;;;;5051693;28;20255;-73
2021/07/18 07:25:29;;;;;;;1999.90;999.90;;;19.60;99.90;;;;;;5051280;28;20191;-73
2021/07/18 07:27:54;;;;;;;1999.90;999.90;;;19.70;99.90;;;;;;5051706;28;20655;-73
2021/07/18 07:30:20;;;;;;;1999.90;999.90;;;19.90;99.90;;;;;;5051614;28;20180;-73
2021/07/18 07:32:46;;;;;;;1999.90;999.90;;;20.00;99.90;;;;;;5051519;28;20206;-73
2021/07/18 07:35:13;;;;;;;1999.90;999.90;;;19.90;99.90;;;;;;5051073;28;20278;-73
2021/07/18 07:37:43;;;;;;;1999.90;999.90;;;19.90;99.90;;;;;;5051444;28;20160;-73
2021/07/18 07:40:12;;;;;;;1999.90;999.90;;;20.10;99.90;;;;;;5051625;28;20527;-73
2021/07/18 07:42:37;;;;;;;1999.90;999.90;;;20.20;99.90;;;;;;5051610;28;20435;-73
2021/07/18 07:45:03;;;;;;;1999.90;999.90;;;20.30;99.90;;;;;;5051270;28;21081;-73
2021/07/18 07:47:29;;;;;;;1999.90;999.90;;;20.30;99.90;;;;;;5051538;28;20169;-73
2021/07/18 07:49:55;;;;;;;1999.90;999.90;;;20.40;99.90;;;;;;5051535;28;20823;-73
2021/07/18 07:52:21;;;;;;;1999.90;999.90;;;20.60;99.90;;;;;;5047780;28;20189;-73
2021/07/18 07:54:46;;;;;;;1999.90;999.90;;;20.70;99.90;;;;;;5049323;28;20187;-73
2021/07/18 07:57:12;;;;;;;1999.90;999.90;;;20.60;99.90;;;;;;5049891;28;20542;-72
2021/07/18 07:59:37;;;;;;;1999.90;999.90;;;20.60;99.90;;;;;;5049754;28;20167;-72
2021/07/18 08:02:03;;;;;;;1999.90;999.90;;;20.60;99.90;;;;;;5049941;28;20214;-73
2021/07/18 08:04:29;;;;;;;1999.90;999.90;;;20.70;99.90;;;;;;5050273;28;20192;-73
2021/07/18 08:06:55;;;;;;;1999.90;999.90;;;20.80;99.90;;;;;;5052924;28;20455;-73
2021/07/18 08:09:21;;;;;;;1999.90;999.90;;;20.90;99.90;;;;;;5053446;28;20168;-73
2021/07/18 08:11:47;;;;;;;1999.90;999.90;;;21.00;99.90;;;;;;5053456;28;20183;-73
2021/07/18 08:14:13;;;;;;;1999.90;999.90;;;21.00;99.90;;;;;;5052418;28;20419;-72
2021/07/18 08:16:39;;;;;;;1999.90;999.90;;;21.00;99.90;;;;;;5053286;28;20400;-73
2021/07/18 08:19:05;;;;;;;1999.90;999.90;;;21.10;99.90;;;;;;5053401;28;20159;-73
2021/07/18 08:21:32;;;;;;;1999.90;999.90;;;21.00;99.90;;;;;;5052886;28;20250;-73
2021/07/18 08:23:58;;;;;;;1999.90;999.90;;;20.90;99.90;;;;;;5052604;28;20454;-73
2021/07/18 08:26:23;;;;;;;1999.90;999.90;;;21.10;99.90;;;;;;5053164;28;20404;-73
2021/07/18 08:28:49;;;;;;;1999.90;999.90;;;21.20;99.90;;;;;;5052722;28;20578;-73
2021/07/18 08:31:17;;;;;;;1999.90;999.90;;;21.30;99.90;;;;;;5053087;28;20180;-72
2021/07/18 08:33:43;;;;;;;1999.90;999.90;;;21.40;99.90;;;;;;5052378;28;20537;-72
2021/07/18 08:36:09;;;;;;;1999.90;999.90;;;21.60;99.90;;;;;;5052566;28;20430;-72
2021/07/18 08:38:35;;;;;;;1999.90;999.90;;;21.80;99.90;;;;;;5037632;28;20416;-70
2021/07/18 08:41:01;;;;;;;1999.90;999.90;;;22.00;99.90;;;;;;5031318;28;20417;-71
2021/07/18 08:43:27;;;;;;;1999.90;999.90;;;22.10;99.90;;;;;;5030444;28;20171;-71
2021/07/18 08:45:53;;;;;;;1999.90;999.90;;;22.30;99.90;;;;;;5030762;28;20409;-72
2021/07/18 08:48:19;;;;;;;1999.90;999.90;;;22.40;99.90;;;;;;5031481;28;20777;-72
2021/07/18 08:50:45;;;;;;;1999.90;999.90;;;22.30;99.90;;;;;;5031765;28;20179;-72
2021/07/18 08:53:11;;;;;;;1999.90;999.90;;;22.30;99.90;;;;;;5031213;28;20214;-72
2021/07/18 08:55:40;;;;;;;1999.90;999.90;;;22.30;99.90;;;;;;5031745;28;20942;-72
2021/07/18 08:58:06;;;;;;;1999.90;999.90;;;22.20;99.90;;;;;;5032470;28;20515;-71
2021/07/18 09:00:32;;;;;;;1999.90;999.90;;;22.30;99.90;;;;;;5014053;28;20506;-72
2021/07/18 09:02:57;;;;;;;1999.90;999.90;;;22.50;99.90;;;;;;5032144;28;20874;-73
2021/07/18 09:05:23;;;;;;;1999.90;999.90;;;22.40;99.90;;;;;;5031194;28;20273;-72
2021/07/18 09:07:54;;;;;;;1999.90;999.90;;;22.50;99.90;;;;;;5031870;28;20670;-72
2021/07/18 09:10:25;;;;;;;1999.90;999.90;;;22.40;99.90;;;;;;5031423;28;20182;-72
2021/07/18 09:13:04;;;;;;;1999.90;999.90;;;22.40;99.90;;;;;;5031379;28;20504;-72
2021/07/18 09:15:47;;;;;;;1999.90;999.90;;;22.30;99.90;;;;;;5030651;28;20481;-70
2021/07/18 09:18:17;;;;;;;1999.90;999.90;;;22.40;99.90;;;;;;5031867;28;20436;-71
2021/07/18 09:20:46;;;;;;;1999.90;999.90;;;22.60;99.90;;;;;;5031232;28;20386;-71
2021/07/18 09:23:20;;;;;;;1999.90;999.90;;;22.90;99.90;;;;;;5031233;28;20412;-71
2021/07/18 09:25:47;;;;;;;1999.90;999.90;;;22.90;99.90;;;;;;5031139;28;20451;-71
2021/07/18 09:28:18;;;;;;;1999.90;999.90;;;22.80;99.90;;;;;;5030894;28;20416;-71
2021/07/18 09:30:45;;;;;;;1999.90;999.90;;;22.90;99.90;;;;;;5013149;28;20420;-72
2021/07/18 09:33:23;;;;;;;1999.90;999.90;;;23.00;99.90;;;;;;5030668;28;20539;-71
2021/07/18 09:35:49;;;;;;;1999.90;999.90;;;23.30;99.90;;;;;;5030239;28;20423;-71
2021/07/18 09:38:24;;;;;;;1999.90;999.90;;;23.70;99.90;;;;;;5031331;28;20377;-71
2021/07/18 09:40:58;;;;;;;1999.90;999.90;;;23.90;99.90;;;;;;5031104;28;20876;-71
2021/07/18 09:43:28;;;;;;;1999.90;999.90;;;24.00;99.90;;;;;;5030580;28;20399;-71
2021/07/18 09:46:08;;;;;;;1999.90;999.90;;;24.00;99.90;;;;;;5030742;28;20446;-74
2021/07/18 09:48:40;;;;;;;1999.90;999.90;;;24.00;99.90;;;;;;5030780;28;20460;-74
2021/07/18 09:51:12;;;;;;;1999.90;999.90;;;24.00;99.90;;;;;;5030110;28;20407;-74
2021/07/18 09:53:38;;;;;;;1999.90;999.90;;;23.90;99.90;;;;;;5030351;28;20975;-74
2021/07/18 09:56:09;;;;;;;1999.90;999.90;;;24.00;99.90;;;;;;5030320;28;20423;-74
2021/07/18 09:58:37;;;;;;;1999.90;999.90;;;24.00;99.90;;;;;;5030573;28;20777;-74
2021/07/18 10:01:06;;;;;;;1999.90;999.90;;;24.20;99.90;;;;;;5030930;28;20425;-74
2021/07/18 10:03:32;;;;;;;1999.90;999.90;;;24.20;99.90;;;;;;5030364;28;20511;-74
2021/07/18 10:06:12;;;;;;;1999.90;999.90;;;24.00;99.90;;;;;;5030004;28;20946;-74
2021/07/18 10:08:46;;;;;;;1999.90;999.90;;;24.00;99.90;;;;;;5030718;28;20414;-74
2021/07/18 10:11:17;;;;;;;1999.90;999.90;;;24.10;99.90;;;;;;5030066;28;20948;-74
2021/07/18 10:13:44;;;;;;;1999.90;999.90;;;24.30;99.90;;;;;;5029506;28;20835;-74
2021/07/18 10:16:11;;;;;;;1999.90;999.90;;;24.50;99.90;;;;;;5029990;28;20473;-74
2021/07/18 10:18:39;;;;;;;1999.90;999.90;;;24.60;99.90;;;;;;5030269;28;20414;-74
2021/07/18 10:21:06;;;;;;;1999.90;999.90;;;24.80;99.90;;;;;;5030130;28;20439;-74
2021/07/18 10:23:34;;;;;;;1999.90;999.90;;;24.90;99.90;;;;;;5029930;28;20422;-73
2021/07/18 10:26:01;;;;;;;1999.90;999.90;;;24.90;99.90;;;;;;5030065;28;20422;-74
2021/07/18 10:28:27;;;;;;;1999.90;999.90;;;25.20;99.90;;;;;;5029448;28;20425;-74
2021/07/18 10:31:03;;;;;;;1999.90;999.90;;;25.40;99.90;;;;;;5029884;28;20410;-74
2021/07/18 10:33:31;;;;;;;1999.90;999.90;;;25.70;99.90;;;;;;5029388;28;20429;-74
2021/07/18 10:35:57;;;;;;;1999.90;999.90;;;25.80;99.90;;;;;;5029282;28;20447;-74
2021/07/18 10:38:25;;;;;;;1999.90;999.90;;;26.10;99.90;;;;;;5030228;28;20843;-74
2021/07/18 10:40:55;;;;;;;1999.90;999.90;;;25.90;99.90;;;;;;5030259;28;20870;-74
2021/07/18 10:43:35;;;;;;;1999.90;999.90;;;25.70;99.90;;;;;;5029451;28;20385;-75
2021/07/18 10:46:01;;;;;;;1999.90;999.90;;;25.50;99.90;;;;;;5029612;28;20416;-75
2021/07/18 10:48:49;;;;;;;1999.90;999.90;;;25.80;99.90;;;;;;5030138;28;20414;-75
2021/07/18 10:51:17;;;;;;;1999.90;999.90;;;26.10;99.90;;;;;;5029263;28;20392;-74
2021/07/18 10:53:44;;;;;;;1999.90;999.90;;;26.30;99.90;;;;;;5029042;28;20459;-75
2021/07/18 10:56:10;;;;;;;1999.90;999.90;;;26.10;99.90;;;;;;5029480;28;20383;-75
2021/07/18 10:58:38;;;;;;;1999.90;999.90;;;26.00;99.90;;;;;;5029602;28;20396;-74
2021/07/18 11:01:31;;;;;;;1999.90;999.90;;;26.10;99.90;;;;;;5029930;28;20388;-75
2021/07/18 11:03:57;;;;;;;1999.90;999.90;;;26.20;99.90;;;;;;5022921;28;21087;-74
2021/07/18 11:06:30;;;;;;;1999.90;999.90;;;26.30;99.90;;;;;;5029350;28;20393;-74
2021/07/18 11:09:19;;;;;;;1999.90;999.90;;;26.10;99.90;;;;;;5030011;28;20466;-74
2021/07/18 11:11:45;;;;;;;1999.90;999.90;;;26.00;99.90;;;;;;5028770;28;20394;-74
2021/07/18 11:14:36;;;;;;;1999.90;999.90;;;26.00;99.90;;;;;;5028972;28;20834;-74
2021/07/18 11:17:23;;;;;;;1999.90;999.90;;;25.70;99.90;;;;;;5029554;28;20198;-75
2021/07/18 11:20:05;;;;;;;1999.90;999.90;;;25.70;99.90;;;;;;5029410;28;20770;-74
2021/07/18 11:23:00;;;;;;;1999.90;999.90;;;25.80;99.90;;;;;;5029850;28;20481;-75
2021/07/18 11:25:47;;;;;;;1999.90;999.90;;;26.00;99.90;;;;;;5029249;28;20405;-74
2021/07/18 11:28:32;;;;;;;1999.90;999.90;;;26.40;99.90;;;;;;5029390;28;20374;-74
2021/07/18 11:31:13;;;;;;;1999.90;999.90;;;26.80;99.90;;;;;;5029541;28;20549;-74
2021/07/18 11:33:44;;;;;;;1999.90;999.90;;;27.00;99.90;;;;;;5028982;28;20472;-75
2021/07/18 11:36:19;;;;;;;1999.90;999.90;;;27.20;99.90;;;;;;5028690;28;20822;-74
2021/07/18 11:38:45;;;;;;;1999.90;999.90;;;27.40;99.90;;;;;;5029715;28;20487;-74
2021/07/18 11:41:20;;;;;;;1999.90;999.90;;;27.70;99.90;;;;;;5032994;28;20480;-74
2021/07/18 11:43:51;;;;;;;1999.90;999.90;;;27.90;99.90;;;;;;5032907;28;20187;-74
2021/07/18 11:46:20;;;;;;;1999.90;999.90;;;27.70;99.90;;;;;;5033127;28;20437;-74
2021/07/18 11:48:48;;;;;;;1999.90;999.90;;;27.80;99.90;;;;;;5032981;28;20436;-75
2021/07/18 11:51:15;;;;;;;1999.90;999.90;;;28.00;99.90;;;;;;5033339;28;21153;-75
2021/07/18 11:53:48;;;;;;;1999.90;999.90;;;28.20;99.90;;;;;;5032185;28;20604;-74
2021/07/18 11:56:37;;;;;;;1999.90;999.90;;;28.00;99.90;;;;;;5031896;28;20386;-74
2021/07/18 11:59:07;;;;;;;1999.90;999.90;;;28.20;99.90;;;;;;5033168;28;20425;-74
2021/07/18 12:01:36;;;;;;;1999.90;999.90;;;28.20;99.90;;;;;;5033039;28;20381;-74